Time;durP1;ratioP1;P1;durP2;ratioP2;P2;SDS_P1;SDS_P2;PMS_P1;PMS_P2;Temp;Humidity;BMP_temperature;BMP_pressure;BME280_temperature;BME280_humidity;BME280_pressure;Samples;Min_cycle;Max_cycle;Signal;HPM_P1;HPM_P2
2022/10/11 04:17:53;;;;;;;14.00;8.55;;;;;;;9.37;100.00;100929.44;5558447;32;243992;-91
2022/10/11 04:20:56;;;;;;;13.13;8.38;;;;;;;9.34;100.00;100925.13;5545091;32;33754;-91
2022/10/11 04:23:58;;;;;;;15.23;8.98;;;;;;;9.41;100.00;100925.78;5548700;32;33667;-91
2022/10/11 04:27:01;;;;;;;15.25;8.85;;;;;;;9.44;100.00;100939.78;5558208;32;32685;-87
2022/10/11 04:30:04;;;;;;;14.18;9.07;;;;;;;9.48;100.00;100937.88;5546452;32;32420;-86
2022/10/11 04:33:07;;;;;;;15.25;9.02;;;;;;;9.53;100.00;100932.41;5544632;32;33944;-87
2022/10/11 04:36:10;;;;;;;17.62;10.00;;;;;;;9.58;100.00;100938.41;5545305;32;33989;-86
2022/10/11 04:39:12;;;;;;;18.83;9.65;;;;;;;9.58;100.00;100935.75;5544366;32;33511;-86
2022/10/11 04:42:15;;;;;;;16.62;9.63;;;;;;;9.61;100.00;100926.81;5543538;32;34238;-86
2022/10/11 04:45:19;;;;;;;13.30;9.05;;;;;;;9.65;100.00;100931.94;5544388;32;34043;-86
2022/10/11 04:48:21;;;;;;;10.82;8.55;;;;;;;9.62;100.00;100928.56;5544981;32;34330;-86
2022/10/11 04:51:24;;;;;;;12.82;8.43;;;;;;;9.69;100.00;100922.09;5552831;32;33777;-86
2022/10/11 04:54:27;;;;;;;11.25;7.75;;;;;;;9.77;100.00;100925.34;5548778;32;32133;-86
2022/10/11 04:57:29;;;;;;;12.75;8.02;;;;;;;9.75;100.00;100921.03;5558087;32;34800;-85
2022/10/11 05:00:32;;;;;;;14.63;8.35;;;;;;;9.76;100.00;100922.75;5562946;32;34786;-86
2022/10/11 05:03:35;;;;;;;13.70;8.52;;;;;;;9.81;100.00;100920.78;5562835;32;34032;-86
2022/10/11 05:06:38;;;;;;;12.65;8.27;;;;;;;9.84;100.00;100925.97;5537424;32;34654;-86
2022/10/11 05:09:40;;;;;;;14.77;8.35;;;;;;;9.83;100.00;100927.75;5532820;32;33823;-85
2022/10/11 05:12:43;;;;;;;15.18;8.80;;;;;;;9.87;100.00;100925.88;5541562;32;34254;-85
2022/10/11 05:15:46;;;;;;;13.48;8.60;;;;;;;9.91;100.00;100922.16;5532418;32;33953;-87
2022/10/11 05:18:48;;;;;;;12.98;7.93;;;;;;;9.96;100.00;100932.59;5533691;32;34290;-88
2022/10/11 05:21:51;;;;;;;14.30;7.95;;;;;;;9.99;100.00;100927.16;5533787;32;33646;-87
2022/10/11 05:24:54;;;;;;;11.57;8.30;;;;;;;10.12;100.00;100932.88;5538119;32;32557;-88
2022/10/11 05:27:56;;;;;;;13.95;8.70;;;;;;;10.16;100.00;100929.16;5518616;32;35022;-88
2022/10/11 05:30:59;;;;;;;13.60;8.07;;;;;;;10.30;100.00;100939.22;5524798;32;34123;-88
2022/10/11 05:34:02;;;;;;;11.88;8.02;;;;;;;10.43;100.00;100936.09;5519924;32;34269;-85
2022/10/11 05:37:04;;;;;;;12.30;7.82;;;;;;;10.59;100.00;100936.34;5522900;32;33865;-85
2022/10/11 05:40:10;;;;;;;13.15;8.43;;;;;;;10.73;100.00;100944.63;5522126;32;33791;-85
2022/10/11 05:43:13;;;;;;;12.98;8.15;;;;;;;10.81;100.00;100952.25;5518217;32;34970;-86
2022/10/11 05:46:16;;;;;;;11.70;8.23;;;;;;;10.79;100.00;100959.41;5527015;32;33589;-86
2022/10/11 05:49:18;;;;;;;13.85;8.07;;;;;;;10.94;100.00;100965.00;5528025;32;34706;-86
2022/10/11 05:52:21;;;;;;;12.35;8.07;;;;;;;11.05;100.00;100955.69;5524297;32;33518;-86
2022/10/11 05:55:24;;;;;;;17.67;7.95;;;;;;;11.03;100.00;100964.62;5513031;32;34365;-86
2022/10/11 05:58:27;;;;;;;10.20;7.53;;;;;;;11.29;100.00;100965.31;5519449;32;33965;-86
2022/10/11 06:01:29;;;;;;;11.98;7.45;;;;;;;11.41;100.00;100964.78;5518681;32;33256;-86
2022/10/11 06:04:35;;;;;;;14.75;7.55;;;;;;;11.42;100.00;100963.00;5517727;32;33704;-87
2022/10/11 06:07:38;;;;;;;12.93;7.80;;;;;;;11.38;100.00;100964.03;5522922;32;32290;-86
2022/10/11 06:10:41;;;;;;;17.33;7.68;;;;;;;11.31;100.00;100982.91;5529915;32;33599;-86
2022/10/11 06:13:43;;;;;;;10.25;7.12;;;;;;;11.41;100.00;100982.53;5523883;32;34326;-90
2022/10/11 06:16:46;;;;;;;12.20;7.32;;;;;;;11.33;100.00;100978.38;5514860;32;34500;-86
2022/10/11 06:19:50;;;;;;;10.88;7.47;;;;;;;11.28;100.00;100985.69;5522425;32;33957;-86
2022/10/11 06:26:30;;;;;;;11.05;7.32;;;;;;;11.50;100.00;100983.88;5575125;26;20100;-91
2022/10/11 06:29:34;;;;;;;10.02;6.87;;;;;;;11.65;100.00;100991.19;5540669;32;34167;-91
2022/10/11 06:36:15;;;;;;;13.10;7.37;;;;;;;11.80;100.00;100992.31;4939955;29;20076;-86
2022/10/11 06:39:18;;;;;;;16.20;8.10;;;;;;;11.93;100.00;100997.91;5537328;32;33690;-87
2022/10/11 06:42:20;;;;;;;11.12;7.90;;;;;;;12.05;100.00;100979.69;5551541;32;33649;-87
2022/10/11 06:45:23;;;;;;;11.18;7.85;;;;;;;11.94;100.00;100982.84;5550787;32;34608;-88
2022/10/11 06:55:37;;;;;;;14.25;7.37;;;;;;;12.47;99.33;100988.41;5574413;26;32301;-88
2022/10/11 07:02:24;;;;;;;10.07;7.00;;;;;;;12.76;97.17;101000.28;5585998;26;20087;-89
2022/10/11 07:05:36;;;;;;;12.43;7.53;;;;;;;13.16;96.88;100999.22;5562233;26;34803;31
2022/10/11 07:08:39;;;;;;;10.48;7.53;;;;;;;13.26;93.95;101000.50;5559596;32;34593;-88
2022/10/11 07:11:42;;;;;;;13.20;7.97;;;;;;;13.34;94.26;101002.78;5541203;32;33453;-87
2022/10/11 07:14:44;;;;;;;14.48;8.40;;;;;;;13.42;94.40;101005.06;5562986;31;34547;-87
2022/10/11 07:17:47;;;;;;;13.93;8.35;;;;;;;13.67;91.63;101015.31;5548285;32;35000;-87
2022/10/11 07:20:49;;;;;;;14.38;7.90;;;;;;;13.93;92.37;101005.06;5544237;32;33706;-89
2022/10/11 07:23:52;;;;;;;11.63;7.97;;;;;;;14.34;88.34;101009.06;5537694;32;33917;-88
2022/10/11 07:26:54;;;;;;;11.60;8.05;;;;;;;14.55;87.52;101000.81;5566214;26;34662;-88
2022/10/11 07:29:57;;;;;;;16.98;7.78;;;;;;;14.51;87.21;101007.28;5575464;31;34191;-89
2022/10/11 07:33:00;;;;;;;14.00;7.72;;;;;;;14.48;88.07;100999.44;5591406;31;33875;-87
2022/10/11 07:36:03;;;;;;;12.30;6.95;;;;;;;14.47;85.27;101005.72;5587882;31;34780;-88
2022/10/11 07:39:07;;;;;;;12.23;7.35;;;;;;;14.88;82.75;101009.69;5577392;31;33786;-89
2022/10/11 07:42:10;;;;;;;15.05;8.10;;;;;;;15.06;81.82;101011.28;5578184;31;34359;-88
2022/10/11 07:45:13;;;;;;;9.18;6.90;;;;;;;15.23;79.15;101009.41;5585850;31;33344;-88
2022/10/11 07:48:15;;;;;;;14.80;6.93;;;;;;;15.11;81.00;101005.69;5573434;31;33961;-88
2022/10/11 07:51:21;;;;;;;10.68;7.22;;;;;;;16.09;76.07;101004.31;5574451;31;33466;-88
2022/10/11 07:54:24;;;;;;;12.07;6.90;;;;;;;17.60;68.83;101014.06;5585021;31;33787;-86
2022/10/11 07:57:26;;;;;;;12.43;7.35;;;;;;;17.53;65.64;101018.16;5562742;31;31746;-87
2022/10/11 08:00:29;;;;;;;8.60;6.10;;;;;;;18.32;63.21;101022.53;5564591;31;33717;-86
2022/10/11 08:03:32;;;;;;;11.98;6.72;;;;;;;17.89;62.65;101021.91;5583148;31;34620;-87
2022/10/11 08:06:35;;;;;;;12.10;6.80;;;;;;;17.66;65.00;101020.84;5584122;31;34648;-87
2022/10/11 08:09:38;;;;;;;10.73;6.80;;;;;;;17.47;65.86;101019.44;5576696;31;33780;-87
2022/10/11 08:12:40;;;;;;;10.70;6.87;;;;;;;17.38;65.28;101020.06;5575165;31;33646;-88
2022/10/11 08:15:43;;;;;;;11.68;6.95;;;;;;;15.96;69.52;101022.94;5580857;31;33624;-87
2022/10/11 08:18:46;;;;;;;12.20;6.50;;;;;;;15.99;70.41;101018.25;5567156;31;33525;-86
2022/10/11 08:21:49;;;;;;;14.40;6.78;;;;;;;16.66;68.29;101024.75;5585549;31;33733;-86
2022/10/11 08:24:51;;;;;;;11.88;6.78;;;;;;;17.80;63.56;101024.38;5568816;31;34128;-89
2022/10/11 08:27:54;;;;;;;12.60;7.37;;;;;;;20.60;55.55;101016.87;5579576;31;34549;-88
2022/10/11 08:30:58;;;;;;;11.32;7.18;;;;;;;22.24;49.98;101020.16;5585020;31;34578;-88
2022/10/11 08:34:01;;;;;;;9.32;6.40;;;;;;;21.16;51.21;101022.22;5587931;31;33460;-87
2022/10/11 08:37:04;;;;;;;12.50;6.97;;;;;;;20.13;55.01;101012.53;5585492;31;35049;-88
2022/10/11 08:40:13;;;;;;;15.10;6.97;;;;;;;19.67;57.35;101014.34;5588047;31;34202;-88
2022/10/11 08:43:43;;;;;;;13.85;7.00;;;;;;;19.57;58.03;101016.00;5578560;31;33216;-90
2022/10/11 08:46:55;;;;;;;16.12;7.65;;;;;;;20.84;54.74;101016.72;5570487;31;32602;-87
2022/10/11 08:50:04;;;;;;;15.68;7.62;;;;;;;20.87;54.43;101012.91;5598098;31;34658;-89
2022/10/11 08:53:24;;;;;;;16.50;6.93;;;;;;;20.20;55.70;101016.44;5570306;31;32937;-88
2022/10/11 08:56:29;;;;;;;17.92;7.75;;;;;;;19.91;57.64;101002.56;5562579;31;33994;-89
2022/10/11 08:59:40;;;;;;;14.00;7.82;;;;;;;19.25;60.60;101004.94;5592765;31;34646;-86
2022/10/11 09:03:02;;;;;;;16.55;8.30;;;;;;;19.35;60.78;100999.72;5571168;31;33923;-85
2022/10/11 09:06:23;;;;;;;9.93;8.10;;;;;;;19.43;59.32;101004.50;5602028;31;33811;-88
2022/10/11 09:09:43;;;;;;;15.30;8.05;;;;;;;19.05;60.47;101003.75;5593889;31;34398;-88
2022/10/11 09:13:12;;;;;;;15.80;8.50;;;;;;;19.05;60.91;101008.31;5581155;31;32558;-89
2022/10/11 09:16:25;;;;;;;14.30;7.75;;;;;;;19.10;60.40;101006.97;5585174;26;34324;-86
2022/10/11 09:19:39;;;;;;;19.35;8.00;;;;;;;19.12;62.98;101004.16;5563888;32;33866;-87
2022/10/11 09:22:51;;;;;;;13.32;7.28;;;;;;;19.65;59.78;101009.06;5560803;32;34715;-86
2022/10/11 09:26:01;;;;;;;19.62;8.00;;;;;;;19.25;60.55;101010.31;5565715;32;34205;-90
2022/10/11 09:29:19;;;;;;;14.00;8.07;;;;;;;19.27;60.13;101015.59;5570423;32;33815;-87
2022/10/11 09:32:27;;;;;;;12.27;8.23;;;;;;;19.07;61.90;101020.63;5562406;32;33875;-86
2022/10/11 09:35:35;;;;;;;13.60;8.30;;;;;;;19.26;59.85;101020.09;5568902;32;35034;-87
2022/10/11 09:38:47;;;;;;;14.20;8.13;;;;;;;19.18;60.39;101022.53;5558535;32;33760;-86
2022/10/11 09:45:27;;;;;;;15.57;8.65;;;;;;;20.50;57.29;101014.06;2722151;26;20081;-88
2022/10/11 09:48:40;;;;;;;15.02;8.23;;;;;;;20.59;57.02;101016.03;5556087;32;32809;-88
2022/10/11 09:51:54;;;;;;;15.80;8.00;;;;;;;21.04;55.72;101014.19;5563835;32;33999;-86
2022/10/11 09:54:59;;;;;;;17.73;9.15;;;;;;;21.47;54.92;101012.34;5537277;32;32877;-87
2022/10/11 09:58:05;;;;;;;14.10;8.10;;;;;;;22.00;53.44;101018.62;5551088;32;33936;-87
2022/10/11 10:01:10;;;;;;;13.73;8.63;;;;;;;21.62;54.48;101017.41;5574497;32;34836;-87
2022/10/11 10:04:18;;;;;;;12.43;8.45;;;;;;;22.10;52.69;101021.38;5577432;32;35027;-87
2022/10/11 10:07:22;;;;;;;15.93;9.63;;;;;;;22.03;52.67;101022.91;5567092;32;33962;-88
2022/10/11 10:10:56;;;;;;;12.20;7.95;;;;;;;22.58;52.19;101025.22;5564480;32;33977;-87
2022/10/11 10:14:01;;;;;;;19.10;9.55;;;;;;;22.79;51.65;101015.28;5566986;31;33733;-88
2022/10/11 10:17:15;;;;;;;13.30;9.63;;;;;;;23.29;49.87;101004.31;5550692;32;32883;-88
2022/10/11 10:20:24;;;;;;;17.60;10.63;;;;;;;23.48;49.45;101004.47;5548639;31;32397;-89
2022/10/11 10:23:33;;;;;;;13.95;9.85;;;;;;;23.92;48.03;101002.03;5559419;32;34458;-88
2022/10/11 10:26:36;;;;;;;16.27;10.02;;;;;;;24.38;47.81;100998.53;5587292;26;32675;-87
2022/10/11 10:29:40;;;;;;;13.43;9.90;;;;;;;24.45;48.84;100987.94;5584893;31;33626;-87
2022/10/11 10:33:03;;;;;;;14.40;9.93;;;;;;;25.93;45.66;100995.56;5585920;31;32625;-87
2022/10/11 10:36:17;;;;;;;15.23;10.60;;;;;;;27.38;41.07;100990.94;5589287;31;34693;-87
2022/10/11 10:39:22;;;;;;;14.40;10.25;;;;;;;26.37;42.60;100991.88;5575385;31;34427;-86
2022/10/11 10:42:26;;;;;;;17.95;10.93;;;;;;;25.96;43.40;100991.69;5591125;31;33974;-86
2022/10/11 10:45:44;;;;;;;19.95;11.15;;;;;;;24.77;47.00;100986.56;5584390;31;33959;-87
2022/10/11 10:48:56;;;;;;;13.40;10.77;;;;;;;23.91;48.96;100988.63;5582288;31;33783;-89
2022/10/11 10:52:41;;;;;;;17.60;10.35;;;;;;;23.45;50.90;100989.37;5559510;31;33703;-88
2022/10/11 10:55:50;;;;;;;14.75;11.25;;;;;;;22.83;51.67;100985.09;5583511;31;34665;-88
2022/10/11 10:59:11;;;;;;;16.87;10.90;;;;;;;22.73;52.60;100978.88;5585973;31;34220;-90
2022/10/11 11:02:27;;;;;;;15.10;11.02;;;;;;;23.05;53.31;100974.12;5588638;31;33993;-87
2022/10/11 11:06:08;;;;;;;14.82;11.80;;;;;;;22.91;53.57;100979.00;5572303;31;32692;-88
2022/10/11 11:09:15;;;;;;;17.80;11.68;;;;;;;23.07;52.73;100974.88;5571129;31;33292;-90
2022/10/11 11:12:48;;;;;;;16.23;11.05;;;;;;;22.95;53.24;100971.44;5572880;31;34412;-87
2022/10/11 11:15:59;;;;;;;21.62;12.00;;;;;;;23.05;53.24;100966.88;5586528;31;34566;-88
2022/10/11 11:19:26;;;;;;;16.15;11.30;;;;;;;22.48;53.26;100971.12;5582835;31;33698;-88
2022/10/11 11:22:43;;;;;;;18.45;11.80;;;;;;;22.22;54.82;100984.28;5575231;31;33725;-92
2022/10/11 11:25:57;;;;;;;15.75;11.80;;;;;;;21.71;56.45;100984.25;5574509;31;34726;-88
2022/10/11 11:32:44;;;;;;;16.15;11.05;;;;;;;21.62;57.53;100975.06;5492395;32;32276;-89
2022/10/11 11:35:52;;;;;;;15.80;11.40;;;;;;;21.97;56.18;100967.56;5512814;32;34272;-88
2022/10/11 11:38:58;;;;;;;19.20;11.85;;;;;;;22.07;55.64;100965.75;5578543;26;33788;-89
2022/10/11 11:42:10;;;;;;;16.17;11.82;;;;;;;21.86;56.14;100971.22;5538400;32;32569;-88
2022/10/11 11:45:32;;;;;;;16.77;10.93;;;;;;;21.46;57.86;100964.75;5600568;26;33989;-89
2022/10/11 11:48:36;;;;;;;23.50;11.98;;;;;;;21.23;59.90;100964.06;5577271;26;32666;-89
2022/10/11 11:51:43;;;;;;;21.52;12.25;;;;;;;21.96;56.71;100957.75;5539840;32;33932;-89
2022/10/11 11:55:11;;;;;;;17.45;12.30;;;;;;;21.79;56.82;100957.41;5564530;26;34554;-88
2022/10/11 11:58:58;;;;;;;17.50;12.65;;;;;;;21.97;56.71;100962.16;5359747;26;20108;31
2022/10/11 12:02:22;;;;;;;18.75;13.05;;;;;;;21.85;56.94;100957.84;5552253;26;33640;-89
2022/10/11 12:05:31;;;;;;;19.87;12.48;;;;;;;22.35;55.14;100959.72;5512886;32;33174;-89
2022/10/11 12:08:35;;;;;;;14.35;11.10;;;;;;;22.24;55.76;100958.00;5585793;26;32699;-89
2022/10/11 12:15:30;;;;;;;18.55;12.80;;;;;;;22.38;55.15;100955.87;2725517;26;20144;-89
2022/10/11 12:18:35;;;;;;;21.25;12.05;;;;;;;21.29;58.98;100955.44;5535283;32;33709;-89
2022/10/11 12:21:43;;;;;;;14.38;12.32;;;;;;;21.36;58.81;100947.66;5611816;26;33898;-88
2022/10/11 12:24:58;;;;;;;18.25;12.70;;;;;;;21.12;60.38;100943.41;5558301;32;34548;-90
2022/10/11 12:28:36;;;;;;;18.30;13.00;;;;;;;21.34;58.95;100946.94;5542869;32;33213;-89
2022/10/11 12:31:39;;;;;;;17.85;13.52;;;;;;;21.28;59.35;100940.25;5541559;32;33062;-89
2022/10/11 12:38:38;;;;;;;20.75;12.80;;;;;;;21.12;59.80;100935.31;841421;30;20800;-89
2022/10/11 12:41:50;;;;;;;20.27;13.18;;;;;;;21.10;59.42;100938.13;5545915;32;33328;-89
2022/10/11 12:45:23;;;;;;;17.33;12.63;;;;;;;20.71;60.99;100940.50;5530125;32;33947;-89
2022/10/11 12:48:33;;;;;;;15.85;12.77;;;;;;;20.55;61.91;100940.91;5582038;26;32631;-89
2022/10/11 12:52:01;;;;;;;16.92;12.45;;;;;;;20.72;61.39;100939.53;5623532;26;32666;-88
2022/10/11 12:55:23;;;;;;;19.02;12.68;;;;;;;20.95;61.61;100931.34;5588353;26;35424;-91
2022/10/11 12:58:39;;;;;;;20.27;13.45;;;;;;;20.38;61.94;100921.66;5554251;32;33807;-87
2022/10/11 13:01:51;;;;;;;17.33;13.23;;;;;;;20.38;61.37;100928.84;5549782;32;33654;-88
2022/10/11 13:05:06;;;;;;;17.50;12.18;;;;;;;20.19;63.35;100925.00;5550264;32;34400;-88
2022/10/11 13:08:25;;;;;;;14.15;11.70;;;;;;;20.59;61.67;100927.09;5523152;32;33496;-88
2022/10/11 13:11:37;;;;;;;20.67;12.85;;;;;;;20.78;61.17;100925.53;5549868;32;33927;-87
2022/10/11 13:15:05;;;;;;;16.70;12.45;;;;;;;20.65;61.99;100925.69;5559671;32;33992;-88
2022/10/11 13:18:13;;;;;;;16.58;12.23;;;;;;;20.55;61.98;100927.44;5545750;32;32588;-89
2022/10/11 13:21:35;;;;;;;21.75;12.85;;;;;;;20.26;62.78;100926.19;5551779;32;33777;-88
2022/10/11 13:24:38;;;;;;;16.60;12.15;;;;;;;20.39;62.24;100926.03;5546016;32;34064;-88
2022/10/11 13:27:42;;;;;;;20.92;12.93;;;;;;;20.85;61.95;100929.44;5548295;32;34014;-88
2022/10/11 13:30:53;;;;;;;22.52;12.35;;;;;;;20.95;61.71;100924.13;5536473;32;32306;-88
2022/10/11 13:33:58;;;;;;;17.02;12.30;;;;;;;20.71;62.70;100929.72;5533677;32;32527;-88
2022/10/11 13:37:00;;;;;;;20.08;12.18;;;;;;;20.77;61.41;100926.50;5533246;32;34044;-86
2022/10/11 13:40:03;;;;;;;19.90;12.45;;;;;;;20.82;61.31;100926.13;5529777;32;34323;-87
2022/10/11 13:43:07;;;;;;;14.60;11.90;;;;;;;20.97;61.03;100927.53;5526603;32;33714;-86
2022/10/11 13:46:18;;;;;;;16.37;12.20;;;;;;;20.95;60.41;100925.94;5550695;32;34540;-87
2022/10/11 13:49:25;;;;;;;17.48;11.80;;;;;;;21.00;60.80;100923.72;5548606;32;35299;-87
2022/10/11 13:52:28;;;;;;;16.48;12.55;;;;;;;21.02;61.76;100921.75;5538358;32;34317;-87
2022/10/11 13:55:46;;;;;;;21.70;12.37;;;;;;;21.06;60.81;100922.34;5533972;32;35468;-87
2022/10/11 13:58:51;;;;;;;20.95;12.40;;;;;;;20.82;62.10;100934.22;5543602;32;32843;-87
2022/10/11 14:02:00;;;;;;;18.15;12.27;;;;;;;20.71;61.57;100927.88;5540191;32;32893;-87
2022/10/11 14:05:03;;;;;;;13.65;12.07;;;;;;;20.41;62.93;100934.00;5543166;32;34052;-87
2022/10/11 14:08:40;;;;;;;16.33;12.02;;;;;;;20.23;64.75;100925.59;5549148;32;34562;-88
2022/10/11 14:11:44;;;;;;;19.10;12.90;;;;;;;20.17;64.98;100932.34;5540806;32;34499;-87
2022/10/11 14:14:47;;;;;;;18.25;12.43;;;;;;;20.35;64.16;100926.44;5535982;32;33247;-87
2022/10/11 14:17:50;;;;;;;20.58;12.73;;;;;;;20.20;63.40;100926.69;5549233;32;34687;-88
2022/10/11 14:20:53;;;;;;;14.93;12.98;;;;;;;19.72;66.91;100922.47;5548644;32;34396;-88
2022/10/11 14:23:57;;;;;;;22.50;13.73;;;;;;;19.61;65.59;100926.00;5549071;32;34569;-88
2022/10/11 14:27:04;;;;;;;17.12;13.40;;;;;;;19.67;65.75;100931.75;5530647;32;34330;-88
2022/10/11 14:30:15;;;;;;;17.40;13.10;;;;;;;19.61;65.06;100931.41;5528647;32;34678;-87
2022/10/11 14:33:33;;;;;;;17.40;13.82;;;;;;;19.66;64.63;100934.53;5514962;32;32881;-87
2022/10/11 14:36:39;;;;;;;21.55;13.93;;;;;;;19.50;64.99;100929.53;5538736;32;33883;-91
2022/10/11 14:39:42;;;;;;;16.85;13.93;;;;;;;19.46;64.19;100928.06;5534199;32;32874;-91
2022/10/11 14:42:45;;;;;;;20.23;13.85;;;;;;;19.50;65.18;100932.22;5548798;32;34039;-90
2022/10/11 14:45:47;;;;;;;17.33;12.90;;;;;;;19.55;65.79;100930.03;5547781;32;33536;-86
2022/10/11 14:48:51;;;;;;;20.75;13.75;;;;;;;19.55;66.97;100931.87;5530033;32;34266;-86
2022/10/11 14:51:58;;;;;;;20.00;14.32;;;;;;;19.38;65.16;100936.75;5535071;32;34308;-86
2022/10/11 14:55:01;;;;;;;19.17;12.88;;;;;;;19.34;66.80;100933.44;5524496;32;33562;-86
2022/10/11 14:58:04;;;;;;;16.35;12.40;;;;;;;19.33;65.74;100937.12;5515600;32;32660;-86
2022/10/11 15:01:12;;;;;;;16.67;12.02;;;;;;;19.38;65.83;100934.06;5513677;32;33139;-86
2022/10/11 15:04:15;;;;;;;17.00;11.88;;;;;;;19.41;66.34;100925.72;5529215;32;34326;-86
2022/10/11 15:07:18;;;;;;;17.42;12.02;;;;;;;19.28;66.19;100933.06;5530813;32;34301;-86
2022/10/11 15:10:22;;;;;;;19.42;12.32;;;;;;;19.33;66.79;100929.03;5519490;32;32969;-86
2022/10/11 15:13:25;;;;;;;14.98;11.48;;;;;;;19.30;67.13;100934.66;5517698;32;32549;-86
2022/10/11 15:16:27;;;;;;;20.40;12.70;;;;;;;19.37;65.01;100935.03;5528847;32;34411;-86
2022/10/11 15:19:30;;;;;;;16.67;12.02;;;;;;;19.23;67.09;100933.41;5515198;32;33440;-85
2022/10/11 15:22:33;;;;;;;25.08;12.73;;;;;;;19.03;67.16;100941.19;5529484;32;34633;-86
2022/10/11 15:25:37;;;;;;;15.18;12.00;;;;;;;18.99;67.33;100943.25;5529139;32;34684;-86
2022/10/11 15:28:40;;;;;;;15.75;12.18;;;;;;;18.92;68.86;100942.00;5526399;32;33884;-86
